首页
METAR-TAF:

METAR-TAF

机场 :

沙希德·哈希米内贾德国际机场

馬什哈德, 伊朗

纬度: 36-16N, 经度: 059-38E, 海拔: 989米

当前天气观测

该预报发布于14分钟前的11:30 UTC
风速6节,风向东转东南
温度 4°C
湿度 87%
气压 1019 hPa
能見度: 8000
多云层高于1200英尺
多云层高于8000英尺

METAR: OIMM 191130Z 11006KT 8000 BKN012 BKN080 04/02 Q1018 A3008

时间: 15:14 (11:44 UTC)

预报

该预报发布于6小时和14分钟前的05:30 UTC
预报有效从19日的 06点(UTC)到 20日的 12点(UTC)
风速8节,风向西北
能見度: 7000
散云层高于2500英尺
多云层高于8000英尺
成为
从 19日的 15点(UTC)到 19日的 17点(UTC)
能見度: 4000
少量云层高于3000英尺, 积雨云.
散云层高于4000英尺
多云层高于10000英尺
雪, 轻雾
短暂存在
从 19日的 18点(UTC)到 20日的 04点(UTC)
能見度: 0500
雪, 雾
成为
从 20日的 04点(UTC)到 20日的 06点(UTC)
能見度: 5000
散云层高于2500英尺
多云层高于8000英尺
轻雾
短暂存在
从 20日的 06点(UTC)到 20日的 12点(UTC)
能見度: 3000
少量云层高于3000英尺, 积雨云.
散云层高于4000英尺
多云层高于10000英尺

TAF: OIMM 190530Z 1906/2012 31008KT 7000 SCT025 BKN080 BECMG 1915/1917 4000 SN BR FEW030CB SCT040 BKN100 TEMPO 1918/2004 0500 SN FG BECMG 2004/2006 5000 BR SCT025 BKN080 TEMPO 2006/2012 3000 SN FEW030CB SCT040 BKN100

超过4000个机场的气象观测和天气预报(METAR&TAF报告)。

可查询的气象台以黄色和红色小点在地图上表示。

将鼠标移到小点上方,可查看气象台名称。

然后点击查看天气观测和预报。

如需切换地图:点击带黑十字的绿色按钮放大地图;点击带横线的绿色按钮缩小地图;或者点击绿色箭头查看邻近地区的地图。


METAR-TAF: